Date,TemperatureHighF,TemperatureAvgF,TemperatureLowF,DewpointHighF,DewpointAvgF,DewpointLowF,HumidityHigh,HumidityAvg,HumidityLow,PressureMaxIn,PressureMinIn,WindSpeedMaxMPH,WindSpeedAvgMPH,GustSpeedMaxMPH,PrecipitationSumIn
2013-1-6,44.5,43.8,43.4,41.5,40.9,40.1,90,89,88,30.19,30.16,4,0,4,0.00
2013-1-7,55.6,45.5,35.3,43.5,39.9,32.1,90,81,60,30.32,30.16,6,0,6,0.00
2013-1-8,60.1,43.2,30.6,46.7,36.9,28.4,93,80,57,30.29,30.19,6,0,6,0.00
2013-1-9,63.7,47.5,33.8,52.6,42.0,30.6,93,82,63,30.20,29.94,12,0,12,0.00
2013-1-10,49.5,42.7,33.3,40.2,36.0,28.9,92,78,60,30.18,30.04,12,2,12,0.08
2013-1-11,48.8,37.4,27.7,37.8,31.3,24.3,92,79,58,30.27,30.14,7,1,8,0.00
2013-1-12,49.1,37.4,29.3,37.4,31.1,25.9,89,79,59,30.28,30.15,4,1,5,0.00
2013-1-13,47.2,34.7,26.5,36.5,28.8,23.4,91,80,58,30.28,30.16,4,0,5,0.00
2013-1-14,47.5,34.5,25.9,34.0,27.2,22.9,90,76,49,30.43,30.22,4,0,4,0.00
2013-1-15,52.2,36.9,25.7,35.1,28.0,22.3,91,73,42,30.52,30.41,4,1,6,0.00
2013-1-17,37.8,36.1,34.9,32.6,31.4,30.4,86,83,80,30.23,30.21,0,0,0,0.00
2013-1-18,64.1,43.5,29.3,44.9,34.6,25.8,92,73,39,30.27,30.15,3,0,5,0.00
2013-1-19,61.9,42.9,29.9,45.0,34.9,26.2,89,75,47,30.30,30.18,4,0,4,0.00
2013-1-20,62.1,42.7,29.5,45.3,35.1,26.0,91,76,48,30.26,30.13,4,0,5,0.00
2013-1-21,65.3,44.2,28.8,45.3,34.8,25.6,92,72,38,30.21,30.11,5,0,6,0.00
2013-1-22,68.4,45.9,30.2,45.3,35.6,26.8,91,71,30,30.18,30.04,4,0,5,0.00
2013-1-23,66.2,51.5,37.1,47.5,40.9,32.2,87,69,39,30.10,30.01,4,0,7,0.00
2013-1-24,60.5,54.8,50.4,54.4,49.8,44.8,91,83,67,30.21,30.04,3,0,6,0.07
2013-1-25,61.6,55.3,51.5,56.2,52.2,48.3,93,89,80,30.21,30.05,4,0,6,0.00
2013-1-26,63.4,56.5,51.5,57.4,52.9,43.5,95,88,74,30.06,29.97,5,1,7,0.00
2013-1-27,54.2,46.8,36.2,44.1,39.9,32.1,88,77,59,30.15,30.00,6,2,10,0.03
2013-1-28,55.1,43.3,34.2,41.8,36.1,30.5,90,77,55,30.28,30.12,4,1,7,0.00
2013-1-29,56.2,43.4,31.7,42.8,36.3,28.6,91,77,56,30.33,30.25,5,1,7,0.00
2013-1-30,61.9,44.5,31.5,45.0,37.1,28.5,92,77,52,30.39,30.29,4,0,5,0.00
2013-1-31,65.3,47.3,33.8,47.7,39.4,30.6,91,76,48,30.31,30.18,4,0,5,0.00
2013-2-1,66.8,48.8,33.5,50.3,41.2,30.2,94,77,50,30.26,30.13,4,0,4,0.00
2013-2-2,62.8,51.8,42.1,51.7,45.5,38.8,90,80,61,30.28,30.20,3,0,4,0.00
2013-2-3,63.2,50.2,40.5,53.1,45.4,37.7,94,84,66,30.24,30.11,4,0,4,0.00
2013-2-4,64.6,49.5,38.2,53.3,43.9,35.5,93,82,63,30.21,30.05,5,0,5,0.00
2013-2-5,66.4,51.3,38.3,53.8,45.1,35.6,94,80,58,30.11,29.98,5,1,7,0.00
2013-2-6,54.4,47.0,35.6,46.6,42.1,31.8,88,83,73,30.21,30.11,5,1,5,0.00
2013-2-7,57.1,43.0,30.4,46.3,37.6,27.6,93,82,61,30.18,30.00,5,1,6,0.00
2013-2-8,49.0,43.4,40.0,44.6,40.4,37.3,92,89,79,30.00,29.92,4,0,6,0.38
2013-2-9,54.4,42.9,32.8,42.2,36.3,28.7,93,78,55,30.12,29.97,5,1,7,0.00
2013-2-10,56.3,41.1,29.0,43.5,33.6,25.9,92,76,48,30.12,30.03,4,0,4,0.00
2013-2-11,59.2,42.7,29.9,42.8,33.8,26.8,91,73,43,30.26,30.08,4,0,5,0.00
2013-2-12,61.9,44.6,30.4,42.7,34.2,26.9,91,70,36,30.37,30.25,4,0,7,0.00
2013-2-13,62.8,45.5,30.4,43.5,35.5,26.7,89,70,41,30.34,30.21,4,1,5,0.00
2013-2-14,65.2,47.4,32.0,46.5,37.8,28.4,92,71,43,30.27,30.15,5,1,8,0.00
2013-2-15,70.9,50.6,34.2,47.9,39.4,30.3,92,69,35,30.29,30.23,4,0,5,0.00
2013-2-16,69.8,50.8,34.7,50.0,39.1,30.8,90,68,31,30.26,30.04,5,0,5,0.00
2013-2-17,67.9,49.8,33.7,49.4,39.0,29.5,90,69,42,30.04,29.95,4,1,6,0.00
2013-2-18,68.0,50.6,34.9,49.4,40.4,31.1,91,70,41,30.04,29.89,4,1,6,0.00
2013-2-19,55.8,46.5,38.7,43.8,39.5,36.0,92,77,57,29.97,29.71,11,1,12,0.40
2013-2-20,51.3,42.6,36.7,43.0,37.6,31.7,92,83,64,30.08,29.79,3,1,4,0.04
2013-2-21,56.2,45.5,36.7,43.6,37.2,31.7,89,74,49,30.18,30.03,5,1,8,0.00
2013-2-22,59.8,45.6,31.9,44.2,36.9,28.6,91,73,50,30.26,30.18,5,1,5,0.00
2013-2-23,60.7,48.8,34.7,45.2,39.3,31.4,93,71,53,30.24,30.07,7,1,9,0.00
2013-2-24,60.3,46.2,34.2,39.3,34.0,29.8,87,65,38,30.27,30.13,8,1,8,0.00
2013-2-25,64.3,46.3,31.1,43.0,34.6,27.2,89,67,36,30.29,30.13,4,1,6,0.00
2013-2-26,63.4,46.7,31.7,44.1,36.1,27.8,90,69,42,30.22,30.11,6,1,8,0.00
2013-2-27,67.3,48.9,32.9,44.6,36.4,29.1,89,66,33,30.35,30.21,4,0,5,0.00
2013-2-28,69.5,51.0,34.7,45.4,38.6,30.3,87,66,38,30.44,30.35,4,1,5,0.00
2013-3-1,73.8,54.6,38.2,49.2,41.8,33.8,88,65,34,30.43,30.23,6,1,6,0.00
2013-3-2,80.3,59.7,39.8,52.0,43.7,35.3,88,60,25,30.28,30.05,5,0,5,0.00
2013-3-3,70.6,61.1,51.5,48.6,45.3,40.0,77,57,40,30.13,29.98,5,1,7,0.00
2013-3-4,70.2,55.9,42.1,52.4,45.1,37.8,91,69,44,30.14,30.00,6,1,6,0.00
2013-3-5,73.1,56.7,41.8,51.1,43.6,37.5,89,64,42,30.07,29.90,5,1,6,0.00
2013-3-6,66.4,54.4,45.9,51.7,44.6,37.6,88,70,49,30.10,29.98,5,1,7,0.03
2013-3-7,61.9,50.8,44.8,48.0,44.3,40.3,88,79,52,30.00,29.84,7,1,9,0.02
2013-3-8,49.3,45.8,42.1,45.8,43.2,38.9,93,90,85,30.05,29.79,4,1,4,0.53
2013-3-9,59.4,53.7,44.8,49.1,46.0,42.4,91,76,61,30.33,30.06,4,1,5,0.01
2013-3-10,68.0,55.4,40.1,48.8,44.2,36.5,89,68,44,30.36,30.24,4,1,5,0.00
2013-3-11,70.2,57.9,37.8,52.2,47.3,34.2,90,69,50,30.27,30.10,3,0,3,0.00
2013-3-12,75.2,61.9,41.2,54.0,49.4,37.6,89,65,46,30.15,30.05,5,0,5,0.00
2013-3-13,82.1,65.4,43.6,57.5,51.3,40.0,89,63,34,30.18,30.04,4,0,4,0.00
2013-3-14,85.0,64.2,47.5,57.2,52.6,43.8,90,68,38,30.12,30.04,2,0,2,0.00
2013-3-15,79.0,64.3,52.0,60.9,54.9,48.0,92,73,51,30.09,29.99,7,1,7,0.00
2013-3-16,79.2,65.1,49.5,59.2,52.9,45.7,89,66,47,30.06,29.94,6,1,6,0.00
2013-3-17,73.3,58.4,42.8,53.5,46.4,38.6,89,67,44,30.10,29.98,9,1,9,0.00
2013-3-18,74.2,63.1,40.3,52.0,47.2,36.1,88,58,40,30.12,30.01,6,1,6,0.00
2013-3-19,76.3,62.4,45.0,52.1,46.2,40.7,85,58,33,30.15,30.03,11,2,11,0.00
2013-3-20,72.4,62.3,53.1,55.6,51.0,46.2,82,68,50,30.14,30.03,7,1,9,0.00
2013-3-21,67.7,53.9,48.6,53.5,48.0,43.1,92,81,55,30.06,29.94,4,0,4,0.00
2013-3-22,67.5,54.5,41.9,45.2,41.4,36.8,87,64,41,30.05,29.96,6,1,6,0.02
2013-3-23,69.8,53.4,37.8,43.1,38.0,32.3,83,59,34,30.13,30.02,4,1,7,0.00
2013-3-24,74.2,56.5,38.9,47.4,41.5,34.5,86,61,35,30.10,29.95,3,1,6,0.00
2013-3-25,78.1,59.6,42.7,50.8,44.6,37.8,85,61,33,30.00,29.88,3,1,6,0.00
2013-3-26,76.3,59.6,43.6,53.5,46.0,39.1,87,64,35,29.97,29.87,4,1,8,0.00
2013-3-27,77.4,62.6,47.3,54.5,47.8,41.8,83,61,35,30.00,29.90,4,1,6,0.00
2013-3-28,75.8,61.5,48.6,57.7,50.9,43.3,84,69,48,30.09,30.00,3,1,6,0.00
2013-3-29,81.7,63.8,45.9,58.0,49.6,42.3,89,64,31,30.10,29.97,4,1,7,0.00
2013-3-30,86.2,67.9,52.0,57.1,50.5,46.1,81,57,28,30.05,29.90,4,1,6,0.00
2013-3-31,77.4,64.9,57.1,56.5,52.2,46.7,90,66,39,30.10,29.98,5,2,8,0.16
2013-4-1,72.4,61.5,50.4,53.5,48.3,44.6,83,64,39,30.16,30.05,4,1,7,0.00
2013-4-2,74.9,59.6,45.5,55.8,47.9,41.3,87,67,39,30.16,30.04,4,1,8,0.00
2013-4-3,80.8,63.7,45.5,56.9,50.3,41.3,88,64,38,30.12,29.96,4,1,7,0.00
2013-4-4,75.1,64.7,53.3,59.4,53.4,48.2,85,68,49,30.14,29.98,4,1,6,0.00
2013-4-5,71.5,61.9,52.9,57.0,52.4,45.5,90,73,52,30.16,30.05,4,1,9,0.00
2013-4-6,74.7,60.4,43.9,56.2,48.4,40.3,88,67,40,30.18,30.04,5,1,11,0.00
2013-4-7,76.0,62.5,47.9,57.1,49.6,43.5,88,65,39,30.12,29.84,5,1,11,0.00
2013-4-8,62.1,55.1,46.8,48.5,43.6,38.2,79,66,50,29.87,29.74,9,2,13,0.00
2013-4-9,71.1,56.1,38.3,45.5,39.9,34.2,86,58,30,30.06,29.87,5,2,11,0.00
2013-4-10,79.9,62.7,42.3,49.0,41.9,36.4,81,51,23,30.16,30.01,4,1,6,0.00
2013-4-11,80.8,64.4,47.0,51.6,47.0,41.1,80,56,32,30.02,29.76,7,2,10,0.00
2013-4-12,83.9,64.6,50.6,55.2,49.3,44.6,81,61,32,29.90,29.77,4,1,6,0.00
2013-4-13,74.0,57.6,50.8,55.0,48.5,45.1,82,73,50,29.86,29.81,4,1,5,0.00
2013-4-15,71.8,61.2,46.8,50.0,41.5,29.5,77,50,29,29.89,29.74,12,3,17,0.00
2013-4-16,65.9,53.4,40.0,44.1,36.3,30.3,76,54,31,30.02,29.89,6,1,10,0.00
2013-4-17,70.2,54.7,36.7,42.7,34.9,28.3,82,52,22,30.19,30.01,5,1,10,0.00
2013-4-18,76.1,59.0,38.7,43.2,36.1,31.8,78,47,21,30.26,30.16,4,1,8,0.00
2013-4-19,81.5,54.8,41.6,46.1,38.5,35.0,80,59,21,30.23,30.01,5,1,6,0.00
2013-4-20,83.5,71.2,47.2,53.7,48.6,39.2,74,47,26,30.05,29.92,5,2,6,0.00
2013-4-21,87.7,72.2,49.3,53.5,47.9,42.7,78,45,24,30.02,29.89,4,1,6,0.00
2013-4-22,90.0,71.6,50.8,56.2,48.5,43.3,78,49,21,29.95,29.78,4,1,8,0.00
2013-4-23,87.1,70.0,51.8,52.8,46.4,38.4,76,47,19,29.92,29.79,4,1,6,0.00
2013-4-24,89.8,71.7,53.1,52.4,46.3,39.4,73,45,19,29.87,29.70,5,2,7,0.00
2013-4-25,80.6,67.1,55.3,56.0,51.1,46.7,74,58,40,30.06,29.87,5,2,8,0.00
2013-4-26,86.8,69.0,51.7,58.3,51.2,45.7,81,56,31,30.18,30.06,4,1,8,0.00
2013-4-27,90.2,72.9,52.2,58.1,51.6,45.5,78,51,29,30.18,30.00,4,1,7,0.00
2013-4-28,94.0,75.4,57.2,61.9,52.6,44.4,75,49,23,30.02,29.82,5,1,8,0.00
2013-4-29,94.0,76.9,56.9,61.5,52.8,45.6,69,46,25,29.87,29.69,5,1,8,0.00
2013-4-30,88.7,79.2,56.9,58.7,51.3,42.9,76,40,22,29.80,29.69,7,2,9,0.00
2013-5-1,89.6,71.5,53.1,53.6,44.1,35.3,73,43,16,30.06,29.80,4,1,8,0.00
2013-5-2,92.2,73.7,51.5,57.2,43.5,34.2,73,40,14,30.17,30.03,4,1,7,0.00
2013-5-3,94.7,74.7,52.2,53.2,47.2,41.5,74,43,18,30.04,29.76,6,1,8,0.00
2013-5-4,93.8,75.3,53.6,55.4,45.6,36.5,75,40,16,29.77,29.52,5,2,8,0.00
2013-5-5,84.6,69.7,54.0,52.8,46.7,36.4,64,45,30,29.84,29.64,9,2,13,0.00
2013-5-6,81.0,69.7,60.1,53.4,48.7,45.8,66,49,33,29.96,29.82,6,2,8,0.00
2013-5-7,71.5,61.6,54.4,56.9,52.0,45.8,89,72,53,30.03,29.96,4,1,7,0.21
2013-5-8,78.7,65.8,53.6,58.5,54.0,49.0,87,68,43,30.09,29.99,7,1,12,0.00
2013-5-9,83.9,69.2,53.5,60.4,54.8,49.1,86,63,39,30.09,30.02,4,1,12,0.00
2013-5-10,89.6,75.2,57.2,62.4,57.9,51.8,83,57,36,30.13,30.01,4,1,6,0.00
2013-5-11,96.1,80.2,59.8,66.1,59.7,53.6,81,53,29,30.10,29.95,4,1,8,0.00
2013-5-12,100.4,83.5,63.5,66.5,59.2,53.2,70,46,24,30.09,29.90,6,2,8,0.00
2013-5-13,99.9,82.0,61.7,63.6,57.4,52.1,74,47,22,30.03,29.84,4,1,8,0.00
2013-5-14,93.6,78.7,62.5,60.0,52.9,41.5,76,45,18,29.93,29.83,6,2,9,0.00
2013-5-15,92.9,77.3,59.6,59.9,51.8,44.2,72,45,22,29.99,29.86,5,2,8,0.00
2013-5-16,79.6,69.3,54.0,55.7,50.4,45.9,77,52,40,30.00,29.89,6,2,9,0.00
2013-5-17,82.1,70.7,54.9,53.6,47.6,40.6,70,46,29,29.99,29.90,6,2,8,0.00
2013-5-18,83.7,68.9,48.6,52.2,43.8,35.5,75,44,21,30.09,29.98,6,2,8,0.00
2013-5-19,88.6,73.3,50.6,56.4,48.6,41.2,71,44,26,30.05,29.90,4,2,7,0.00
2013-5-20,95.6,85.3,55.4,58.4,49.1,43.4,70,31,19,30.00,29.86,4,2,10,0.00
2013-5-21,94.9,84.9,56.7,56.8,44.9,28.4,73,27,11,29.90,29.76,6,3,10,0.00
2013-5-22,76.1,65.9,50.0,47.9,39.8,26.1,65,41,19,29.95,29.81,7,2,10,0.00
2013-5-23,77.6,62.1,42.1,44.3,35.8,32.6,70,41,22,29.94,29.87,5,1,5,0.00
2013-5-24,84.2,71.8,44.8,48.9,43.3,35.3,71,38,22,29.98,29.85,4,2,7,0.00
2013-5-25,85.7,69.9,48.6,50.5,42.8,36.8,73,41,21,29.97,29.89,5,2,8,0.00
2013-5-26,84.8,73.7,53.1,51.9,48.0,42.4,69,42,28,30.06,29.95,6,2,10,0.00
2013-5-27,83.7,69.7,53.6,55.5,50.0,45.2,74,52,32,30.06,29.94,8,2,8,0.00
2013-5-28,84.2,70.6,55.1,60.7,53.0,47.3,79,56,32,29.97,29.81,7,3,12,0.00
2013-5-29,87.3,73.6,54.9,59.9,51.3,43.8,78,48,35,29.91,29.76,8,2,11,0.00
2013-5-30,89.8,74.6,54.2,58.7,50.4,43.3,75,45,26,29.93,29.82,6,2,9,0.00
2013-5-31,94.3,75.9,53.3,56.1,50.2,44.0,74,44,24,29.97,29.85,5,2,9,0.00
2013-6-1,99.9,81.9,57.6,62.8,53.7,48.6,73,42,23,29.89,29.71,4,1,7,0.00
2013-6-2,104.0,85.5,61.2,62.7,54.6,43.3,76,39,16,29.74,29.57,4,1,8,0.00
2013-6-3,96.7,82.9,63.9,60.2,55.1,49.4,61,41,25,29.75,29.65,5,2,8,0.00
2013-6-4,95.6,80.5,63.4,60.9,56.4,50.8,65,46,29,29.86,29.75,5,2,7,0.00
2013-6-5,96.1,81.3,63.2,63.8,59.4,54.7,76,50,31,29.94,29.79,5,1,8,0.00
2013-6-6,99.7,84.5,63.2,66.2,61.2,56.0,79,49,29,29.87,29.74,5,2,8,0.00
2013-6-7,104.0,91.1,67.7,67.3,64.2,58.7,74,44,27,29.81,29.66,4,2,8,0.00
2013-6-8,107.3,89.9,70.9,73.5,65.3,62.1,75,49,25,29.71,29.59,4,1,7,0.00
2013-6-9,102.2,89.2,72.0,63.4,58.0,50.0,52,36,24,29.77,29.65,5,2,8,0.00
2013-6-10,87.5,75.6,63.0,59.2,53.6,42.9,67,49,23,29.90,29.74,9,2,12,0.00
2013-6-11,94.9,78.1,61.7,60.2,56.5,51.7,71,50,27,29.95,29.79,4,1,8,0.00
2013-6-12,96.8,80.9,63.9,63.0,56.0,43.7,77,47,22,29.90,29.81,5,2,8,0.00
2013-6-13,90.2,81.9,63.9,46.4,42.0,34.8,51,26,16,30.03,29.90,5,2,9,0.00
2013-6-14,92.9,68.5,57.2,50.5,46.4,39.6,61,48,17,29.92,29.76,5,1,6,0.00
2013-6-15,95.9,78.2,58.5,50.8,45.2,36.0,64,36,13,29.87,29.79,5,2,5,0.00
2013-6-16,93.4,77.1,58.3,53.2,47.5,42.0,64,38,18,30.02,29.88,7,2,7,0.00
2013-6-17,92.5,76.7,58.7,54.8,48.6,44.2,62,40,22,30.03,29.88,6,2,6,0.00
2013-6-18,86.9,73.9,58.1,54.6,49.4,44.3,71,45,25,29.98,29.82,7,3,7,0.00
2013-6-19,82.1,69.6,55.6,51.0,46.8,43.6,66,46,28,30.01,29.89,7,2,7,0.00
2013-6-20,88.4,71.8,52.6,50.6,45.6,42.0,67,43,22,29.95,29.84,8,2,8,0.00
2013-6-21,90.4,75.2,55.3,52.0,47.1,41.0,66,40,19,29.93,29.82,6,2,6,0.00
2013-6-22,95.2,83.6,58.0,53.6,48.3,43.5,63,32,18,29.91,29.76,5,2,6,0.00
2013-6-23,87.8,79.1,60.1,55.0,51.3,43.0,67,39,26,29.82,29.74,8,3,11,0.00
2013-6-24,87.3,74.9,61.9,62.2,57.5,51.0,71,56,40,29.87,29.78,4,1,8,0.00
2013-6-25,94.1,80.0,64.3,63.5,60.2,56.2,77,53,33,29.97,29.85,5,2,9,0.00
2013-6-26,96.5,82.6,68.0,68.4,64.0,59.8,77,56,35,30.01,29.89,5,2,10,0.00
2013-6-27,100.1,85.1,68.4,68.4,65.0,60.1,76,54,32,30.04,29.92,5,2,7,0.00
2013-6-28,104.6,88.9,72.0,68.0,64.8,59.6,74,48,24,29.98,29.82,5,2,8,0.00
2013-6-29,106.6,89.1,73.6,67.2,64.0,59.9,68,47,23,29.88,29.72,5,2,7,0.00
2013-6-30,107.5,96.6,74.5,68.3,65.2,62.0,68,38,25,29.80,29.67,5,2,8,0.00
2013-7-1,103.3,88.3,74.9,71.9,66.5,63.1,68,50,30,29.82,29.71,4,1,7,0.00
2013-7-2,109.4,92.2,74.9,70.0,61.1,51.2,67,40,17,29.87,29.77,4,1,6,0.00
2013-7-3,104.6,89.8,74.2,71.2,62.9,55.5,60,42,27,29.86,29.68,4,1,6,0.00
2013-7-4,107.6,91.9,75.2,70.3,66.8,63.2,71,47,25,29.73,29.60,5,1,9,0.00
2013-7-5,106.7,92.8,77.6,70.5,63.8,57.1,63,41,24,29.70,29.59,4,1,7,0.00
2013-7-6,100.3,84.4,67.3,60.0,55.5,48.0,65,41,19,29.74,29.64,5,1,5,0.00
2013-7-7,105.3,91.4,65.5,62.5,55.4,47.3,55,32,17,29.78,29.68,4,2,6,0.00
2013-7-8,105.7,86.9,63.9,58.5,51.8,45.9,57,34,17,29.89,29.78,5,2,8,0.00
2013-7-9,97.9,77.8,64.8,61.6,55.8,50.5,64,49,26,29.99,29.85,6,1,8,0.00
2013-7-10,100.6,85.7,68.9,66.3,60.1,54.7,62,44,24,29.92,29.79,5,1,5,0.00
2013-7-11,99.2,85.7,76.0,65.5,57.8,50.3,61,41,20,29.87,29.76,6,2,6,0.00
2013-7-12,91.3,78.2,65.2,55.7,53.0,50.0,58,43,25,29.89,29.77,3,1,5,0.00
2013-7-13,101.9,83.4,65.3,59.2,54.5,50.7,63,41,19,29.91,29.79,4,1,8,0.00
2013-7-14,103.1,84.1,64.4,59.1,51.4,43.0,53,36,14,29.94,29.78,4,1,7,0.00
2013-7-15,101.0,83.6,65.9,56.3,51.8,43.4,54,36,16,29.84,29.69,5,1,7,0.00
2013-7-16,96.5,80.4,62.5,57.7,51.2,45.2,55,39,20,29.92,29.77,6,1,9,0.00
2013-7-17,94.3,78.6,61.6,59.9,55.9,52.2,74,49,27,30.04,29.91,4,2,8,0.00
2013-7-18,98.6,81.7,63.7,60.9,56.9,52.3,72,47,22,30.00,29.83,5,2,8,0.00
2013-7-19,100.8,87.9,73.6,62.6,59.0,54.7,55,40,24,29.88,29.73,4,1,5,0.00
2013-7-20,104.9,86.9,68.8,62.8,57.6,50.1,63,41,18,29.78,29.65,4,1,6,0.00
2013-7-21,91.6,89.2,78.1,63.5,60.6,57.1,51,39,34,29.77,29.71,2,1,3,0.00
2013-7-22,97.0,85.4,76.7,73.5,66.0,59.8,75,54,34,29.88,29.75,5,1,7,0.01
2013-7-23,100.4,85.3,73.4,68.0,63.6,58.2,78,52,27,29.95,29.83,6,2,8,0.00
2013-7-24,100.6,88.8,70.0,64.7,58.3,48.4,69,39,22,29.93,29.80,5,1,8,0.00
2013-7-25,103.3,87.8,72.5,65.8,62.3,59.9,67,45,25,29.91,29.83,4,1,7,0.00
2013-7-26,99.0,84.7,73.8,66.9,63.2,59.3,71,51,31,30.01,29.89,4,1,5,0.00
2013-7-27,101.9,87.6,76.1,66.4,61.3,51.2,70,45,19,29.94,29.74,7,1,8,0.00
2013-7-28,101.9,86.6,69.7,62.5,58.4,49.3,69,42,18,29.80,29.69,6,2,9,0.00
2013-7-29,100.1,84.5,68.4,60.8,57.4,49.8,66,43,20,29.91,29.75,4,1,7,0.00
2013-7-30,96.5,81.8,66.6,63.4,57.9,51.0,71,48,23,30.02,29.90,5,1,7,0.00
2013-7-31,97.7,81.5,65.0,61.1,55.2,43.3,70,45,17,30.02,29.86,6,2,8,0.00
2013-8-1,94.3,78.3,62.3,55.4,50.1,40.6,71,41,18,29.99,29.84,6,2,9,0.00
2013-8-2,94.9,78.3,59.4,53.7,48.1,38.7,65,39,16,29.93,29.81,4,1,7,0.00
2013-8-3,97.9,78.3,58.7,58.2,50.5,43.4,66,42,19,29.92,29.80,4,1,7,0.00
2013-8-4,98.3,79.5,60.8,57.9,51.1,43.7,61,40,17,29.93,29.81,4,1,7,0.00
2013-8-5,97.0,79.4,62.3,59.5,54.8,50.3,66,46,23,29.95,29.82,4,1,8,0.00
2013-8-6,96.5,79.5,61.7,60.1,55.3,50.5,76,48,23,29.94,29.84,5,1,8,0.00
2013-8-7,91.4,82.1,63.0,58.9,54.7,50.7,74,41,27,30.03,29.90,5,2,8,0.00
2013-8-8,90.0,75.5,59.9,60.3,55.3,51.2,77,53,28,29.97,29.82,5,2,9,0.00
2013-8-9,92.0,75.7,58.7,59.9,54.1,49.1,79,51,24,29.90,29.81,4,1,7,0.00
2013-8-10,92.2,76.8,60.7,60.0,54.5,49.2,77,49,24,29.98,29.87,5,1,9,0.00
2013-8-11,94.0,77.8,60.8,62.1,55.8,51.5,74,50,25,29.96,29.82,5,1,8,0.00
2013-8-12,96.8,79.0,61.9,60.9,56.3,52.7,72,49,24,29.93,29.82,5,1,8,0.00
2013-8-13,99.0,80.3,62.6,59.8,56.2,52.8,73,48,22,29.94,29.80,4,1,8,0.00
2013-8-14,101.2,81.4,63.2,60.3,55.8,50.0,71,45,19,29.91,29.77,5,1,8,0.00
2013-8-15,100.6,81.3,63.7,59.7,55.0,46.6,67,45,17,29.90,29.79,6,1,8,0.00
2013-8-16,101.2,82.0,65.9,64.7,58.7,53.3,71,48,22,29.92,29.81,5,1,6,0.00
2013-8-17,101.5,80.9,66.6,63.9,58.4,52.7,74,50,20,29.91,29.74,5,1,8,0.00
2013-8-18,96.7,85.2,67.1,66.9,60.5,55.4,68,45,28,29.85,29.70,3,1,5,0.00
2013-8-19,105.7,88.2,71.8,69.2,62.8,53.3,80,48,24,29.82,29.70,8,2,12,0.00
2013-8-20,103.7,87.4,72.2,64.9,57.8,48.7,53,38,23,29.81,29.69,4,1,8,0.00
2013-8-21,100.6,82.7,67.9,61.9,54.0,48.9,55,39,20,29.86,29.73,4,1,7,0.00
2013-8-22,98.6,80.2,63.2,61.9,55.9,51.0,72,47,22,29.88,29.72,5,1,7,0.00
2013-8-23,94.7,77.8,63.4,61.1,57.6,54.7,75,53,27,29.84,29.70,5,1,7,0.00
2013-8-24,96.1,78.0,61.6,59.8,54.9,50.2,73,49,22,29.82,29.70,5,1,8,0.00
2013-8-25,96.1,76.7,62.1,60.2,55.3,50.3,76,51,25,29.90,29.77,4,1,7,0.00
2013-8-26,94.5,78.1,62.5,62.7,57.5,52.4,74,51,30,29.93,29.76,4,1,7,0.00
2013-8-27,96.8,81.1,64.4,63.8,59.8,56.3,77,51,29,29.83,29.68,4,1,7,0.00
2013-8-28,98.1,87.0,66.8,63.0,60.8,58.1,74,43,29,29.84,29.74,4,2,7,0.00
2013-8-29,97.9,81.5,65.9,65.0,61.0,57.3,77,53,30,29.95,29.84,5,1,7,0.00
2013-8-30,97.7,83.2,65.7,64.4,61.2,57.7,77,50,29,29.97,29.82,4,1,6,0.00
2013-8-31,97.4,82.4,70.7,64.7,60.9,54.4,70,51,25,29.90,29.77,4,1,8,0.00
2013-9-1,97.6,82.8,69.1,65.4,62.1,59.2,75,52,30,29.86,29.75,4,1,7,0.00
2013-9-2,96.3,83.4,70.7,65.8,63.2,60.3,73,53,34,29.88,29.74,4,1,7,0.00
2013-9-3,94.1,82.2,73.3,66.2,62.9,58.6,67,53,39,29.92,29.79,4,1,7,0.00
2013-9-4,95.4,80.6,66.2,65.2,61.7,57.7,75,55,36,29.94,29.80,4,1,7,0.00
2013-9-5,90.7,74.1,66.2,62.6,59.4,56.3,74,61,38,29.91,29.81,2,0,3,0.00
2013-9-6,94.9,78.6,63.7,62.4,58.1,52.7,74,51,33,29.92,29.75,5,1,7,0.00
2013-9-7,101.3,81.7,64.3,64.9,59.7,55.3,79,52,23,29.84,29.71,3,1,5,0.00
2013-9-8,100.3,81.4,63.5,60.7,56.4,51.2,70,46,23,29.80,29.65,4,1,6,0.00
2013-9-9,98.5,81.4,65.9,62.7,57.7,54.2,70,48,24,29.74,29.60,3,1,6,0.00
2013-9-10,100.6,82.1,64.8,60.2,56.2,50.0,73,45,19,29.77,29.65,4,1,6,0.00
2013-9-11,91.3,76.4,63.0,60.0,55.3,51.0,67,50,29,29.91,29.77,4,1,6,0.00
2013-9-12,91.8,76.1,61.7,62.8,58.1,53.5,78,56,32,29.91,29.77,4,1,6,0.00
2013-9-13,94.9,79.0,64.4,62.7,59.0,56.2,76,54,28,29.81,29.64,4,1,7,0.00
2013-9-14,97.2,80.9,66.2,63.5,60.4,57.2,73,53,31,29.71,29.58,4,1,6,0.00
2013-9-15,95.4,79.1,64.4,64.3,59.6,56.1,79,54,30,29.75,29.65,4,1,7,0.00
2013-9-16,93.1,75.9,61.6,61.1,57.7,53.6,76,56,33,29.81,29.66,5,1,7,0.00
2013-9-17,87.8,73.9,61.4,57.9,53.7,47.0,79,53,29,29.78,29.68,6,2,9,0.00
2013-9-18,85.5,69.7,55.3,56.3,51.3,46.4,75,54,30,29.84,29.72,4,1,7,0.00
2013-9-19,92.3,73.4,56.2,56.6,52.6,48.6,77,52,25,29.81,29.66,4,1,7,0.00
2013-9-20,93.6,76.0,58.0,56.7,52.3,48.0,76,48,24,29.76,29.65,6,1,8,0.00
2013-9-21,84.4,69.9,57.6,59.4,52.9,48.4,75,56,35,29.82,29.68,7,2,13,0.00
2013-9-22,76.7,64.0,51.1,53.5,48.6,43.8,79,59,37,29.92,29.82,4,1,9,0.00
2013-9-23,84.2,67.7,51.8,54.2,50.4,43.8,77,56,34,29.96,29.83,3,1,6,0.00
2013-9-24,89.3,71.8,54.0,57.2,52.1,47.1,82,53,28,29.92,29.74,4,1,7,0.00
2013-9-25,75.4,65.2,54.5,51.6,46.7,42.1,75,53,34,29.85,29.64,6,2,10,0.00
2013-9-26,74.3,60.9,48.8,48.2,43.5,40.4,76,55,32,29.78,29.67,4,1,7,0.00
2013-9-29,88.4,76.4,58.5,47.9,44.0,37.7,61,35,18,30.02,29.97,4,1,7,0.00
2013-9-30,84.2,66.5,50.0,57.0,49.6,41.1,74,57,32,30.07,29.90,3,0,6,0.00
2013-10-1,83.9,68.7,54.4,59.6,53.2,46.7,78,59,35,29.97,29.84,3,0,6,0.00
2013-10-2,82.1,66.9,53.6,53.8,49.9,44.9,79,57,33,29.97,29.84,5,1,8,0.00
2013-10-3,75.2,60.4,47.3,47.4,44.2,40.0,79,57,35,29.99,29.88,4,1,6,0.00
2013-10-4,79.9,62.9,47.2,47.1,41.7,38.2,76,50,25,30.09,29.93,4,1,8,0.00
2013-10-5,84.2,64.4,47.0,46.6,41.6,38.3,73,48,21,30.19,30.09,4,1,6,0.00
2013-10-6,87.7,66.1,46.3,47.4,40.3,32.0,74,46,15,30.13,29.96,4,1,6,0.00
2013-10-7,86.4,66.2,52.0,46.3,42.0,38.2,67,45,19,29.97,29.82,3,1,5,0.00
2013-10-8,82.6,64.5,47.0,47.3,41.7,36.5,68,47,24,29.85,29.66,4,1,6,0.00
2013-10-9,61.2,56.9,50.8,48.7,44.7,41.9,74,64,56,29.77,29.63,0,0,0,0.00
2013-10-10,73.8,58.7,43.7,48.2,43.8,37.2,82,60,38,29.96,29.77,0,0,0,0.00
2013-10-11,77.9,60.8,45.0,48.9,44.2,38.4,80,57,32,30.03,29.90,3,0,5,0.00
2013-10-12,80.3,61.8,46.4,50.2,44.9,39.3,79,57,32,29.97,29.83,3,1,6,0.00
2013-10-13,74.2,60.0,48.2,50.4,45.9,41.0,80,62,40,30.03,29.84,4,1,6,0.00
2013-10-14,79.2,61.4,46.6,50.4,45.4,40.1,80,59,32,30.08,29.95,4,1,6,0.00
2013-10-15,80.5,61.8,45.9,49.1,43.8,38.8,78,55,26,30.01,29.91,3,1,5,0.00
2013-10-16,82.6,62.8,45.0,46.6,41.2,37.2,78,50,22,30.08,29.97,3,1,6,0.00
2013-10-17,81.5,62.7,45.7,46.8,41.7,37.3,74,50,24,30.05,29.91,4,1,6,0.00
2013-10-18,84.2,63.3,46.4,47.4,43.0,38.6,76,52,24,30.02,29.93,3,1,5,0.00
2013-10-19,84.6,63.6,46.3,47.5,43.0,38.1,74,51,24,30.05,29.94,4,1,5,0.00
2013-10-20,83.7,62.7,45.0,47.9,42.8,37.2,76,52,24,29.98,29.86,3,1,6,0.00
2013-10-21,84.4,63.5,45.9,50.0,43.7,38.1,77,53,25,29.95,29.84,3,0,5,0.00
2013-10-22,83.9,64.1,46.1,49.2,44.1,38.3,75,52,25,29.98,29.84,4,0,5,0.00
2013-10-23,82.8,63.6,47.9,50.9,45.1,39.4,75,54,28,29.91,29.82,2,0,4,0.00
2013-10-24,83.2,63.5,47.7,50.9,46.1,40.4,79,57,28,30.01,29.88,3,0,5,0.00
2013-10-25,80.3,61.8,48.1,52.7,46.5,41.1,78,60,33,30.12,30.01,3,1,5,0.00
2013-10-26,81.0,62.1,46.8,51.0,46.4,40.0,80,59,34,30.10,29.95,4,1,5,0.00
2013-10-27,81.0,62.9,47.2,53.0,46.6,40.6,80,58,31,29.98,29.64,4,1,7,0.00
2013-10-28,62.3,55.4,49.0,50.4,45.1,40.1,81,69,49,29.86,29.70,4,2,7,0.09
2013-10-29,66.4,54.4,43.9,48.5,43.4,38.6,85,68,43,29.99,29.87,4,1,6,0.01
2013-10-30,68.8,53.7,40.7,47.6,41.4,35.1,84,65,41,30.10,29.99,3,1,6,0.00
2013-10-31,71.1,54.9,41.4,47.7,42.1,35.3,81,64,41,30.15,30.03,3,1,5,0.00
2013-11-1,77.8,57.1,40.9,49.1,42.4,34.7,85,61,32,30.13,29.98,3,1,7,0.00
2013-11-2,77.2,57.6,42.8,48.7,42.8,36.3,82,61,33,30.01,29.83,3,1,5,0.00
2013-11-3,65.9,52.0,42.1,46.6,41.4,35.4,82,68,44,29.96,29.84,4,1,6,0.00
2013-11-4,64.4,52.5,42.1,41.1,37.3,33.1,75,58,34,30.02,29.84,4,1,6,0.00
2013-11-5,69.1,51.6,36.7,41.8,35.8,30.1,82,58,31,30.20,30.02,3,1,6,0.00
2013-11-6,73.4,53.4,36.7,42.4,36.5,30.1,80,56,26,30.25,30.14,4,1,5,0.00
2013-11-7,78.3,57.1,42.8,45.0,38.2,34.2,75,53,22,30.15,30.01,3,1,6,0.00
2013-11-8,74.3,55.4,40.3,45.1,38.1,32.0,75,55,29,30.04,29.91,3,1,5,0.00
2013-11-9,76.7,54.8,39.8,45.1,38.8,32.7,80,58,28,30.01,29.92,3,0,5,0.00
2013-11-10,78.8,56.5,38.0,44.3,37.6,31.2,81,53,22,30.07,29.96,2,0,6,0.00
2013-11-11,74.5,55.9,40.0,45.6,39.6,31.6,76,57,32,30.14,30.01,2,0,5,0.00
2013-11-12,65.3,57.3,50.2,50.1,45.3,41.1,78,64,53,30.24,30.10,3,1,4,0.00
2013-11-13,72.0,55.9,43.0,49.8,43.8,36.9,82,65,43,30.21,30.05,3,0,5,0.00
2013-11-14,75.2,57.2,42.3,48.3,43.0,36.2,82,62,35,30.07,29.78,3,0,4,0.00
2013-11-15,66.6,53.3,41.6,46.3,41.3,35.2,81,65,46,29.79,29.68,5,1,8,0.00
2013-11-16,67.5,52.6,40.7,46.2,40.7,35.1,84,66,41,29.88,29.72,3,1,5,0.00
2013-11-17,68.0,49.6,39.4,45.2,38.9,33.1,81,68,40,30.05,29.88,2,0,4,0.00
2013-11-18,67.7,52.7,41.0,45.8,40.5,34.4,81,65,43,30.12,29.99,3,0,5,0.00
2013-11-19,64.4,52.6,40.5,48.0,42.4,34.3,82,69,53,30.07,29.95,4,1,6,0.00
2013-11-20,68.4,57.8,50.6,52.4,49.2,43.5,86,74,52,29.96,29.79,6,1,8,0.51
2013-11-21,58.0,55.3,52.4,53.3,51.1,49.1,89,86,82,29.92,29.81,4,2,7,0.09
2013-11-22,58.1,53.2,49.3,51.1,48.6,44.7,90,85,75,29.98,29.90,2,1,4,0.02
2013-11-23,62.8,51.9,45.0,49.5,44.8,40.4,90,77,54,30.07,29.95,3,0,5,0.01
2013-11-24,65.2,51.2,40.1,50.7,42.8,35.6,89,74,47,30.21,30.06,4,1,5,0.01
2013-11-25,64.4,49.9,38.5,49.5,41.8,34.1,88,75,55,30.29,30.21,2,0,5,0.00
2013-11-26,64.3,50.9,40.0,50.4,43.4,34.9,88,76,56,30.23,30.04,3,0,5,0.00
2013-11-27,70.7,54.5,43.2,51.5,43.8,39.0,88,70,37,30.04,29.79,4,1,7,0.01
2013-11-28,68.4,53.1,44.5,48.9,43.3,38.3,84,71,43,30.02,29.81,3,1,5,0.00
2013-11-29,65.2,49.7,38.9,49.9,41.8,33.6,87,75,54,30.19,30.01,2,0,4,0.00
2013-11-30,68.0,51.1,38.3,49.6,41.3,33.9,88,71,43,30.23,30.13,3,0,5,0.01
2013-12-1,66.6,49.8,36.5,48.2,40.6,32.1,87,72,49,30.31,30.17,2,0,5,0.00
2013-12-2,66.6,50.6,38.7,49.7,42.1,33.7,89,74,54,30.21,29.89,3,0,5,0.00
2013-12-3,52.0,46.0,37.3,48.3,41.4,32.2,90,84,78,29.91,29.72,5,1,9,0.08
2013-12-4,50.0,39.0,31.5,34.6,30.3,25.5,86,72,48,30.02,29.84,3,1,6,0.00
2013-12-5,48.8,36.2,27.0,32.9,27.1,21.9,83,71,47,30.13,30.00,3,0,5,0.02
2013-12-6,50.0,37.8,26.6,33.4,27.7,21.5,83,68,46,30.18,30.05,2,0,5,0.01
2013-12-7,49.9,41.7,30.6,40.7,32.1,24.6,85,69,46,30.16,29.91,7,2,10,0.24
2013-12-8,47.2,35.4,27.4,33.8,27.1,22.7,84,73,51,30.27,30.16,3,0,5,0.01
2013-12-9,47.5,35.0,25.9,34.2,26.9,20.6,84,73,51,30.39,30.26,3,0,6,0.00
2013-12-10,51.5,36.9,26.3,34.9,27.6,21.5,84,70,47,30.38,30.18,4,0,6,0.01
2013-12-11,56.0,39.9,28.4,36.0,29.8,23.3,85,69,41,30.23,30.14,3,0,6,0.00
2013-12-12,58.7,41.0,28.8,38.7,31.1,23.7,84,69,44,30.23,30.13,2,0,4,0.01
2013-12-13,57.8,41.1,28.8,38.9,31.5,23.7,85,70,45,30.29,30.13,2,0,4,0.00
2013-12-14,59.6,41.4,28.8,41.0,31.8,23.7,86,70,42,30.36,30.26,3,0,5,0.00
2013-12-15,58.9,42.4,29.5,41.3,33.2,24.4,85,71,48,30.33,30.19,2,0,4,0.01
2013-12-16,62.3,44.5,32.6,42.5,35.0,27.5,86,71,48,30.22,30.09,3,0,5,0.00
2013-12-17,65.5,48.8,34.6,45.6,38.6,29.9,87,70,47,30.16,29.98,3,1,4,0.00
2013-12-18,63.7,52.1,46.3,48.3,43.3,40.0,81,73,55,29.98,29.66,5,1,9,0.00
2013-12-19,53.1,49.5,42.5,44.6,42.2,37.0,81,76,71,29.84,29.63,4,1,7,0.00
2013-12-20,55.4,45.6,36.2,38.5,35.4,28.4,87,69,46,29.95,29.70,4,1,6,0.00
2013-12-21,58.5,38.9,30.8,38.3,30.1,25.6,83,71,47,29.96,29.73,1,0,1,0.00